createdAt,value
2023-05-12T00:00:55.837Z,99.11
2023-05-12T00:03:24.529Z,99.29
2023-05-12T00:05:52.250Z,99.10
2023-05-12T00:08:19.735Z,99.24
2023-05-12T00:10:47.672Z,99.21
2023-05-12T00:13:15.576Z,99.33
2023-05-12T00:15:43.098Z,99.13
2023-05-12T00:18:10.805Z,99.32
2023-05-12T00:20:38.426Z,99.07
2023-05-12T00:23:05.845Z,98.98
2023-05-12T00:25:34.110Z,98.87
2023-05-12T00:28:01.660Z,98.76
2023-05-12T00:30:29.209Z,98.94
2023-05-12T00:32:57.437Z,98.82
2023-05-12T00:35:24.970Z,98.94
2023-05-12T00:37:52.504Z,98.80
2023-05-12T00:40:20.612Z,98.78
2023-05-12T00:42:48.403Z,98.67
2023-05-12T00:45:15.922Z,98.45
2023-05-12T00:47:45.655Z,98.73
2023-05-12T00:50:13.526Z,98.56
2023-05-12T00:52:41.125Z,98.65
2023-05-12T00:55:09.489Z,98.59
2023-05-12T00:57:37.265Z,98.46
2023-05-12T01:00:07.493Z,98.55
2023-05-12T01:02:37.125Z,98.67
2023-05-12T01:05:05.781Z,98.43
2023-05-12T01:07:33.901Z,98.51
2023-05-12T01:10:01.848Z,98.51
2023-05-12T01:12:36.658Z,98.49
2023-05-12T01:15:05.007Z,98.38
2023-05-12T01:17:35.561Z,98.34
2023-05-12T01:20:06.257Z,98.36
2023-05-12T01:22:35.993Z,98.37
2023-05-12T01:25:08.253Z,98.28
2023-05-12T01:27:39.699Z,98.32
2023-05-12T01:30:09.782Z,98.26
2023-05-12T01:32:40.439Z,98.48
2023-05-12T01:35:08.808Z,98.27
2023-05-12T01:37:37.286Z,98.46
2023-05-12T01:40:05.800Z,98.40
2023-05-12T01:42:33.384Z,98.38
2023-05-12T01:45:01.289Z,98.43
2023-05-12T01:47:28.894Z,98.29
2023-05-12T01:49:57.253Z,98.37
2023-05-12T01:52:25.385Z,98.56
2023-05-12T01:54:52.975Z,98.52
2023-05-12T01:57:20.993Z,98.27
2023-05-12T01:59:49.234Z,98.30
2023-05-12T02:02:16.834Z,98.32
2023-05-12T02:04:44.968Z,98.25
2023-05-12T02:07:12.464Z,98.12
2023-05-12T02:09:39.996Z,98.20
2023-05-12T02:12:08.294Z,98.01
2023-05-12T02:14:35.861Z,98.19
2023-05-12T02:17:04.707Z,98.34
2023-05-12T02:19:32.625Z,98.17
2023-05-12T02:22:00.490Z,97.95
2023-05-12T02:24:28.040Z,97.95
2023-05-12T02:26:56.024Z,97.93
2023-05-12T02:29:23.552Z,97.78
2023-05-12T02:31:51.078Z,97.79
2023-05-12T02:34:19.490Z,97.95
2023-05-12T02:36:46.980Z,98.24
2023-05-12T02:39:14.501Z,98.46
2023-05-12T02:41:42.339Z,98.68
2023-05-12T02:44:09.905Z,98.89
2023-05-12T02:46:37.519Z,98.76
2023-05-12T02:49:05.436Z,99.06
2023-05-12T02:51:32.978Z,99.00
2023-05-12T02:54:00.468Z,98.77
2023-05-12T02:56:29.739Z,98.45
2023-05-12T02:58:57.937Z,98.32
2023-05-12T03:01:25.786Z,98.50
2023-05-12T03:03:53.658Z,98.52
2023-05-12T03:06:21.352Z,98.52
2023-05-12T03:08:48.873Z,98.27
2023-05-12T03:11:16.723Z,98.05
2023-05-12T03:13:44.281Z,97.94
2023-05-12T03:16:12.560Z,98.03
2023-05-12T03:18:40.446Z,98.16
2023-05-12T03:21:08.075Z,98.26
2023-05-12T03:23:37.457Z,98.19
2023-05-12T03:26:05.233Z,98.04
2023-05-12T03:28:32.758Z,97.97
2023-05-12T03:31:00.331Z,98.28
2023-05-12T03:33:29.548Z,98.10
2023-05-12T03:35:57.059Z,97.99
2023-05-12T03:38:24.634Z,97.70
2023-05-12T03:40:52.919Z,97.64
2023-05-12T03:43:21.290Z,97.58
2023-05-12T03:45:49.081Z,97.47
2023-05-12T03:48:16.887Z,97.80
2023-05-12T03:50:44.433Z,97.79
2023-05-12T03:53:11.943Z,97.66
2023-05-12T03:55:39.741Z,97.61
2023-05-12T03:58:08.100Z,97.55
2023-05-12T04:00:35.673Z,97.65
2023-05-12T04:03:03.560Z,97.45
2023-05-12T04:05:31.265Z,97.14
2023-05-12T04:07:59.748Z,97.22
2023-05-12T04:10:27.523Z,97.33
2023-05-12T04:12:54.981Z,97.34
2023-05-12T04:15:22.954Z,97.45
2023-05-12T04:17:51.198Z,97.37
2023-05-12T04:20:19.184Z,97.37
2023-05-12T04:22:47.709Z,97.24
2023-05-12T04:25:15.788Z,97.06
2023-05-12T04:27:43.322Z,97.30
2023-05-12T04:30:11.754Z,97.26
2023-05-12T04:32:40.035Z,97.54
2023-05-12T04:35:08.664Z,97.47
2023-05-12T04:37:36.266Z,97.37
2023-05-12T04:40:05.188Z,97.41
2023-05-12T04:42:32.809Z,97.47
2023-05-12T04:45:00.600Z,97.41
2023-05-12T04:47:29.390Z,97.30
2023-05-12T04:49:57.357Z,97.47
2023-05-12T04:52:25.070Z,97.50
2023-05-12T04:54:53.484Z,97.35
2023-05-12T04:57:21.703Z,97.16
2023-05-12T04:59:49.593Z,97.04
2023-05-12T05:02:17.626Z,96.78
2023-05-12T05:04:45.680Z,96.41
2023-05-12T05:07:13.320Z,96.56
2023-05-12T05:09:41.157Z,96.59
2023-05-12T05:12:09.157Z,96.47
2023-05-12T05:14:36.681Z,96.37
2023-05-12T05:17:04.760Z,96.20
2023-05-12T05:19:44.798Z,96.32
2023-05-12T05:22:20.138Z,96.49
2023-05-12T05:24:47.678Z,96.66
2023-05-12T05:27:15.313Z,96.33
2023-05-12T05:29:43.489Z,96.22
2023-05-12T05:32:11.015Z,96.33
2023-05-12T05:34:39.526Z,96.00
2023-05-12T05:37:07.396Z,95.98
2023-05-12T05:39:34.936Z,95.96
2023-05-12T05:42:02.674Z,95.52
2023-05-12T05:44:30.768Z,95.39
2023-05-12T05:46:58.630Z,95.21
2023-05-12T05:49:26.454Z,95.33
2023-05-12T05:51:55.477Z,95.23
2023-05-12T05:54:26.124Z,95.10
2023-05-12T05:56:53.977Z,95.25
2023-05-12T05:59:21.561Z,94.89
2023-05-12T06:01:49.119Z,94.92
2023-05-12T06:04:17.025Z,94.94
2023-05-12T06:06:44.589Z,94.84
2023-05-12T06:09:12.563Z,94.87
2023-05-12T06:11:40.478Z,94.75
2023-05-12T06:14:07.962Z,94.42
2023-05-12T06:16:35.527Z,94.27
2023-05-12T06:19:06.836Z,94.48
2023-05-12T06:21:34.485Z,94.47
2023-05-12T06:24:02.145Z,93.76
2023-05-12T06:26:30.062Z,93.84
2023-05-12T06:28:57.533Z,93.23
2023-05-12T06:31:25.164Z,93.62
2023-05-12T06:33:53.079Z,93.72
2023-05-12T06:36:20.670Z,93.92
2023-05-12T06:38:48.188Z,93.91
2023-05-12T06:41:16.057Z,93.78
2023-05-12T06:43:43.645Z,93.77
2023-05-12T06:46:11.125Z,93.61
2023-05-12T06:48:38.933Z,93.79
2023-05-12T06:51:06.604Z,94.04
2023-05-12T06:53:37.620Z,94.38
2023-05-12T06:56:05.864Z,94.02
2023-05-12T06:58:33.493Z,94.01
2023-05-12T07:01:01.078Z,93.94
2023-05-12T07:03:32.410Z,94.35
2023-05-12T07:06:00.231Z,94.32
2023-05-12T07:08:27.829Z,94.50
2023-05-12T07:10:55.597Z,94.87
2023-05-12T07:13:23.103Z,94.69
2023-05-12T07:15:50.687Z,94.79
2023-05-12T07:18:18.484Z,94.21
2023-05-12T07:20:46.725Z,94.08
2023-05-12T07:23:14.344Z,94.35
2023-05-12T07:25:42.217Z,94.41
2023-05-12T07:28:09.783Z,94.37
2023-05-12T07:30:37.701Z,94.42
2023-05-12T07:33:06.685Z,94.30
2023-05-12T07:35:34.380Z,94.22
2023-05-12T07:38:03.350Z,94.47
2023-05-12T07:40:31.123Z,93.82
2023-05-12T07:42:58.724Z,94.20
2023-05-12T07:45:26.289Z,94.41
2023-05-12T07:47:54.139Z,94.36
2023-05-12T07:50:21.906Z,93.70
2023-05-12T07:52:50.723Z,93.64
2023-05-12T07:55:20.125Z,93.74
2023-05-12T07:57:49.019Z,93.64
2023-05-12T08:00:16.690Z,93.71
2023-05-12T08:02:44.601Z,93.15
2023-05-12T08:05:12.110Z,93.43
2023-05-12T08:07:41.233Z,93.75
2023-05-12T08:10:10.404Z,92.70
2023-05-12T08:12:37.935Z,93.29
2023-05-12T08:15:05.844Z,93.12
2023-05-12T08:17:33.957Z,93.14
2023-05-12T08:20:04.424Z,93.29
2023-05-12T08:22:32.394Z,93.10
2023-05-12T08:25:00.347Z,93.07
2023-05-12T08:27:29.519Z,93.30
2023-05-12T08:29:57.096Z,93.10
2023-05-12T08:32:25.000Z,93.23
2023-05-12T08:34:52.689Z,93.26
2023-05-12T08:37:20.984Z,93.71
2023-05-12T08:39:49.138Z,94.02
2023-05-12T08:42:25.687Z,94.21
2023-05-12T08:44:55.724Z,94.64
2023-05-12T08:47:25.841Z,95.15
2023-05-12T08:50:04.120Z,95.25
2023-05-12T08:52:35.770Z,95.66
2023-05-12T08:55:05.089Z,95.80
2023-05-12T08:57:33.248Z,96.10
2023-05-12T09:00:02.935Z,96.09
2023-05-12T09:02:44.761Z,95.77
2023-05-12T09:05:16.182Z,96.17
2023-05-12T09:07:45.052Z,96.20
2023-05-12T09:10:32.762Z,95.76
2023-05-12T09:13:23.911Z,95.50
2023-05-12T09:15:53.991Z,95.65
2023-05-12T09:18:22.312Z,95.70
2023-05-12T09:20:49.802Z,96.08
2023-05-12T09:23:22.119Z,95.68
2023-05-12T09:26:02.479Z,95.60
2023-05-12T09:28:37.511Z,95.49
2023-05-12T09:31:25.178Z,95.61
2023-05-12T09:33:52.912Z,95.62
2023-05-12T09:36:22.430Z,95.66
2023-05-12T09:39:07.106Z,95.91
2023-05-12T09:41:39.673Z,95.75
2023-05-12T09:44:08.712Z,96.01
2023-05-12T09:46:39.765Z,95.88
2023-05-12T09:49:07.964Z,95.76
2023-05-12T09:51:35.750Z,95.96
2023-05-12T09:54:05.746Z,95.69
2023-05-12T09:56:37.778Z,96.01
2023-05-12T09:59:05.835Z,95.87
2023-05-12T10:01:34.758Z,96.20
2023-05-12T10:04:07.812Z,96.24
2023-05-12T10:06:41.631Z,96.52
2023-05-12T10:09:19.717Z,96.44
2023-05-12T10:11:50.621Z,96.95
2023-05-12T10:14:20.080Z,97.07
2023-05-12T10:16:49.655Z,97.10
2023-05-12T10:19:18.856Z,96.59
2023-05-12T10:21:47.079Z,96.80
2023-05-12T10:24:17.896Z,96.26
2023-05-12T10:26:45.484Z,95.84
2023-05-12T10:29:14.232Z,95.91
2023-05-12T10:31:45.345Z,95.58
2023-05-12T10:34:21.681Z,95.15
2023-05-12T10:36:54.124Z,94.47
2023-05-12T10:39:32.954Z,94.32
2023-05-12T10:42:02.955Z,94.37
2023-05-12T10:44:30.815Z,93.49
2023-05-12T10:47:02.044Z,92.94
2023-05-12T10:49:40.101Z,92.75
2023-05-12T10:52:08.131Z,92.49
2023-05-12T10:54:45.228Z,92.45
2023-05-12T10:57:21.393Z,91.81
2023-05-12T10:59:57.773Z,91.25
2023-05-12T11:02:34.440Z,90.69
2023-05-12T11:05:12.893Z,91.25
2023-05-12T11:07:48.058Z,91.39
2023-05-12T11:10:17.222Z,90.53
2023-05-12T11:12:45.868Z,90.64
2023-05-12T11:15:15.508Z,90.62
2023-05-12T11:17:46.516Z,90.45
2023-05-12T11:20:24.291Z,90.37
2023-05-12T11:22:52.933Z,90.67
2023-05-12T11:25:20.882Z,90.31
2023-05-12T11:27:51.520Z,90.15
2023-05-12T11:30:19.963Z,90.29
2023-05-12T11:32:47.835Z,90.30
2023-05-12T11:35:17.721Z,90.01
2023-05-12T11:37:46.535Z,90.30
2023-05-12T11:40:22.660Z,90.02
2023-05-12T11:42:53.067Z,90.04
2023-05-12T11:45:28.554Z,89.69
2023-05-12T11:48:33.407Z,89.27
2023-05-12T11:51:01.454Z,89.17
2023-05-12T11:53:29.362Z,89.25
2023-05-12T11:55:57.179Z,88.46
2023-05-12T11:58:27.213Z,87.53
2023-05-12T12:00:55.913Z,87.32
2023-05-12T12:03:24.985Z,87.70
2023-05-12T12:06:03.394Z,86.74
2023-05-12T12:08:31.934Z,86.79
2023-05-12T12:11:01.990Z,86.42
2023-05-12T12:13:31.289Z,85.70
2023-05-12T12:15:58.954Z,84.54
2023-05-12T12:18:27.040Z,85.46
2023-05-12T12:20:54.883Z,85.96
2023-05-12T12:23:22.340Z,85.86
2023-05-12T12:25:49.798Z,85.70
2023-05-12T12:28:17.604Z,85.49
2023-05-12T12:30:45.103Z,85.32
2023-05-12T12:33:13.132Z,84.32
2023-05-12T12:35:41.578Z,85.03
2023-05-12T12:38:09.085Z,84.26
2023-05-12T12:40:36.599Z,83.08
2023-05-12T12:43:04.596Z,83.02
2023-05-12T12:45:32.176Z,83.02
2023-05-12T12:47:59.817Z,83.43
2023-05-12T12:50:27.823Z,82.90
2023-05-12T12:52:55.321Z,83.18
2023-05-12T12:55:23.208Z,83.90
2023-05-12T12:57:51.219Z,84.66
2023-05-12T13:00:19.835Z,84.40
2023-05-12T13:02:47.517Z,84.63
2023-05-12T13:05:16.360Z,84.09
2023-05-12T13:07:43.834Z,83.85
2023-05-12T13:10:12.224Z,83.73
2023-05-12T13:12:40.086Z,84.53
2023-05-12T13:15:08.472Z,83.83
2023-05-12T13:17:36.320Z,83.92
2023-05-12T13:20:04.779Z,83.65
2023-05-12T13:22:32.370Z,83.46
2023-05-12T13:24:59.969Z,83.08
2023-05-12T13:27:27.860Z,82.32
2023-05-12T13:29:55.361Z,81.93
2023-05-12T13:32:22.960Z,81.27
2023-05-12T13:34:50.813Z,82.23
2023-05-12T13:37:18.276Z,81.76
2023-05-12T13:39:45.806Z,81.44
2023-05-12T13:42:13.860Z,81.51
2023-05-12T13:44:41.444Z,81.38
2023-05-12T13:47:10.292Z,81.23
2023-05-12T13:49:38.104Z,80.42
2023-05-12T13:52:05.972Z,80.72
2023-05-12T13:54:33.966Z,80.15
2023-05-12T13:57:04.026Z,80.50
2023-05-12T13:59:32.043Z,80.98
2023-05-12T14:01:59.720Z,80.09
2023-05-12T14:04:28.036Z,80.06
2023-05-12T14:06:55.639Z,80.69
2023-05-12T14:09:23.319Z,80.67
2023-05-12T14:11:51.096Z,80.48
2023-05-12T14:14:18.576Z,80.04
2023-05-12T14:16:46.180Z,79.75
2023-05-12T14:19:14.138Z,79.07
2023-05-12T14:21:42.093Z,78.78
2023-05-12T14:24:10.118Z,77.90
2023-05-12T14:26:37.971Z,78.22
2023-05-12T14:29:06.922Z,77.86
2023-05-12T14:31:35.855Z,77.75
2023-05-12T14:34:04.520Z,77.75
2023-05-12T14:36:32.302Z,78.68
2023-05-12T14:38:59.826Z,78.73
2023-05-12T14:41:27.624Z,78.59
2023-05-12T14:43:55.080Z,79.05
2023-05-12T14:46:22.809Z,78.77
2023-05-12T14:48:50.736Z,78.64
2023-05-12T14:51:18.312Z,77.68
2023-05-12T14:53:46.125Z,77.63
2023-05-12T14:56:14.214Z,77.98
2023-05-12T14:58:41.768Z,77.69
2023-05-12T15:01:09.688Z,77.64
2023-05-12T15:03:37.862Z,77.24
2023-05-12T15:06:08.056Z,77.42
2023-05-12T15:08:36.107Z,77.43
2023-05-12T15:11:04.985Z,77.19
2023-05-12T15:13:32.581Z,77.69
2023-05-12T15:16:00.156Z,77.91
2023-05-12T15:18:28.091Z,77.77
2023-05-12T15:20:55.617Z,77.76
2023-05-12T15:23:23.178Z,77.79
2023-05-12T15:25:51.353Z,78.16
2023-05-12T15:28:18.904Z,78.44
2023-05-12T15:30:57.276Z,78.52
2023-05-12T15:33:25.398Z,78.51
2023-05-12T15:35:52.965Z,78.46
2023-05-12T15:38:20.596Z,78.51
2023-05-12T15:40:48.497Z,78.65
2023-05-12T15:43:15.983Z,78.44
2023-05-12T15:45:44.279Z,78.91
2023-05-12T15:48:12.165Z,78.83
2023-05-12T15:50:39.767Z,79.03
2023-05-12T15:53:07.384Z,79.26
2023-05-12T15:55:35.303Z,79.55
2023-05-12T15:58:04.438Z,79.70
2023-05-12T16:00:32.050Z,80.15
2023-05-12T16:03:01.706Z,79.63
2023-05-12T16:05:29.583Z,79.88
2023-05-12T16:07:57.520Z,80.05
2023-05-12T16:10:25.337Z,80.67
2023-05-12T16:12:52.842Z,80.78
2023-05-12T16:15:20.557Z,80.61
2023-05-12T16:17:48.620Z,81.16
2023-05-12T16:20:16.440Z,80.94
2023-05-12T16:22:44.099Z,80.95
2023-05-12T16:25:11.934Z,81.28
2023-05-12T16:27:39.656Z,81.44
2023-05-12T16:30:07.938Z,81.78
2023-05-12T16:32:35.814Z,81.54
2023-05-12T16:35:03.731Z,82.06
2023-05-12T16:37:31.737Z,82.00
2023-05-12T16:39:59.835Z,82.11
2023-05-12T16:42:27.513Z,82.15
2023-05-12T16:44:55.112Z,82.04
2023-05-12T16:47:23.154Z,82.00
2023-05-12T16:49:53.878Z,81.58
2023-05-12T16:52:21.719Z,81.63
2023-05-12T16:54:49.562Z,81.37
2023-05-12T16:57:17.136Z,80.90
2023-05-12T16:59:44.989Z,80.98
2023-05-12T17:02:13.216Z,80.99
2023-05-12T17:04:40.846Z,80.54
2023-05-12T17:07:09.629Z,80.50
2023-05-12T17:09:37.406Z,79.90
2023-05-12T17:12:06.872Z,79.71
2023-05-12T17:14:38.040Z,79.90
2023-05-12T17:17:05.948Z,80.07
2023-05-12T17:19:34.662Z,80.23
2023-05-12T17:22:02.195Z,80.54
2023-05-12T17:24:30.464Z,80.70
2023-05-12T17:26:58.509Z,80.67
2023-05-12T17:29:26.165Z,80.69
2023-05-12T17:31:54.060Z,80.23
2023-05-12T17:34:21.622Z,80.17
2023-05-12T17:36:49.188Z,79.99
2023-05-12T17:39:17.263Z,79.60
2023-05-12T17:41:44.815Z,79.32
2023-05-12T17:44:12.578Z,78.96
2023-05-12T17:46:40.634Z,79.10
2023-05-12T17:49:08.273Z,79.53
2023-05-12T17:51:35.787Z,79.72
2023-05-12T17:54:04.140Z,80.20
2023-05-12T17:56:31.726Z,80.30
2023-05-12T17:58:59.240Z,80.14
2023-05-12T18:01:27.804Z,79.69
2023-05-12T18:03:55.674Z,80.00
2023-05-12T18:06:24.353Z,80.61
2023-05-12T18:08:52.331Z,80.61
2023-05-12T18:11:20.221Z,80.98
2023-05-12T18:13:48.122Z,81.49
2023-05-12T18:16:27.610Z,82.11
2023-05-12T18:18:57.136Z,81.81
2023-05-12T18:21:25.195Z,81.50
2023-05-12T18:23:52.780Z,81.52
2023-05-12T18:26:20.927Z,81.20
2023-05-12T18:28:48.773Z,81.13
2023-05-12T18:31:19.646Z,80.94
2023-05-12T18:33:48.997Z,80.78
2023-05-12T18:36:17.159Z,80.55
2023-05-12T18:38:45.151Z,80.57
2023-05-12T18:41:12.960Z,80.74
2023-05-12T18:43:40.481Z,80.45
2023-05-12T18:46:08.073Z,80.62
2023-05-12T18:48:35.938Z,80.62
2023-05-12T18:51:03.584Z,80.75
2023-05-12T18:53:31.155Z,81.14
2023-05-12T18:55:58.944Z,81.34
2023-05-12T18:58:26.431Z,81.42
2023-05-12T19:00:54.195Z,81.33
2023-05-12T19:03:21.994Z,81.39
2023-05-12T19:05:49.575Z,81.73
2023-05-12T19:08:19.091Z,81.68
2023-05-12T19:10:48.037Z,81.63
2023-05-12T19:13:15.707Z,81.60
2023-05-12T19:15:43.258Z,81.63
2023-05-12T19:18:11.394Z,81.53
2023-05-12T19:20:39.011Z,81.59
2023-05-12T19:23:06.706Z,81.17
2023-05-12T19:25:35.455Z,81.07
2023-05-12T19:28:03.121Z,80.87
2023-05-12T19:30:31.083Z,80.78
2023-05-12T19:32:58.914Z,80.87
2023-05-12T19:35:26.769Z,80.56
2023-05-12T19:37:54.366Z,80.43
2023-05-12T19:40:22.138Z,80.54
2023-05-12T19:42:50.423Z,80.54
2023-05-12T19:45:18.049Z,80.60
2023-05-12T19:47:46.071Z,80.83
2023-05-12T19:50:13.648Z,80.88
2023-05-12T19:52:41.311Z,81.06
2023-05-12T19:55:09.379Z,81.26
2023-05-12T19:57:37.581Z,81.12
2023-05-12T20:00:05.898Z,81.56
2023-05-12T20:02:40.303Z,81.49
2023-05-12T20:05:08.637Z,81.87
2023-05-12T20:07:36.169Z,81.93
2023-05-12T20:10:04.187Z,82.21
2023-05-12T20:12:32.028Z,82.37
2023-05-12T20:14:59.550Z,82.50
2023-05-12T20:17:27.074Z,82.19
2023-05-12T20:19:55.288Z,82.40
2023-05-12T20:22:22.808Z,82.26
2023-05-12T20:24:51.365Z,82.17
2023-05-12T20:27:19.172Z,82.11
2023-05-12T20:29:46.993Z,81.95
2023-05-12T20:32:14.633Z,82.27
2023-05-12T20:34:42.854Z,82.22
2023-05-12T20:37:10.332Z,82.09
2023-05-12T20:39:37.847Z,81.89
2023-05-12T20:42:06.128Z,82.00
2023-05-12T20:44:33.649Z,81.76
2023-05-12T20:47:01.795Z,81.69
2023-05-12T20:49:29.757Z,81.76
2023-05-12T20:51:57.377Z,82.03
2023-05-12T20:54:24.863Z,82.02
2023-05-12T20:56:52.726Z,82.37
2023-05-12T20:59:20.277Z,82.65
2023-05-12T21:01:47.866Z,82.97
2023-05-12T21:04:15.887Z,82.88
2023-05-12T21:06:43.482Z,82.69
2023-05-12T21:09:11.123Z,82.68
2023-05-12T21:11:38.947Z,82.96
2023-05-12T21:14:06.412Z,82.79
2023-05-12T21:16:33.924Z,82.83
2023-05-12T21:19:01.807Z,82.76
2023-05-12T21:21:29.416Z,82.53
2023-05-12T21:23:56.899Z,82.41
2023-05-12T21:26:26.786Z,82.86
2023-05-12T21:28:54.370Z,82.87
2023-05-12T21:31:21.855Z,82.97
2023-05-12T21:33:49.728Z,82.76
2023-05-12T21:36:17.240Z,82.83
2023-05-12T21:38:44.702Z,82.87
2023-05-12T21:41:12.487Z,83.28
2023-05-12T21:43:39.994Z,83.30
2023-05-12T21:46:07.555Z,83.29
2023-05-12T21:48:35.373Z,83.26
2023-05-12T21:51:03.520Z,82.98
2023-05-12T21:53:31.200Z,82.75
2023-05-12T21:55:59.009Z,82.77
2023-05-12T21:58:26.521Z,83.11
2023-05-12T22:00:54.067Z,82.99
2023-05-12T22:03:23.003Z,83.00
2023-05-12T22:05:50.600Z,82.74
2023-05-12T22:08:18.804Z,82.71
2023-05-12T22:10:46.983Z,82.92
2023-05-12T22:13:15.002Z,83.17
2023-05-12T22:15:42.691Z,83.05
2023-05-12T22:18:10.951Z,83.20
2023-05-12T22:20:38.636Z,82.96
2023-05-12T22:23:06.226Z,83.11
2023-05-12T22:25:34.014Z,83.18
2023-05-12T22:28:01.593Z,83.29
2023-05-12T22:30:29.106Z,83.36
2023-05-12T22:32:57.200Z,83.51
2023-05-12T22:35:24.697Z,83.98
2023-05-12T22:37:52.282Z,84.18
2023-05-12T22:40:23.092Z,84.61
2023-05-12T22:42:50.874Z,84.81
2023-05-12T22:45:18.563Z,85.77
2023-05-12T22:47:46.534Z,86.00
2023-05-12T22:50:14.175Z,86.43
2023-05-12T22:52:41.987Z,86.63
2023-05-12T22:55:10.461Z,86.68
2023-05-12T22:57:40.814Z,86.60
2023-05-12T23:00:08.838Z,87.33
2023-05-12T23:02:36.686Z,86.95
2023-05-12T23:05:04.476Z,87.86
2023-05-12T23:07:31.939Z,88.02
2023-05-12T23:09:59.692Z,87.52
2023-05-12T23:12:27.474Z,88.03
2023-05-12T23:14:55.038Z,88.02
2023-05-12T23:17:22.877Z,88.51
2023-05-12T23:19:52.254Z,88.52
2023-05-12T23:22:19.861Z,88.66
2023-05-12T23:24:47.732Z,88.71
2023-05-12T23:27:15.349Z,88.77
2023-05-12T23:29:42.840Z,89.04
2023-05-12T23:32:10.799Z,88.45
2023-05-12T23:34:40.432Z,88.52
2023-05-12T23:37:07.947Z,89.00
2023-05-12T23:39:36.018Z,88.89
2023-05-12T23:42:03.944Z,88.72
2023-05-12T23:44:31.386Z,88.59
2023-05-12T23:46:59.188Z,88.76
2023-05-12T23:49:27.446Z,88.86
2023-05-12T23:51:55.022Z,89.16
2023-05-12T23:54:22.905Z,88.96
2023-05-12T23:56:50.524Z,89.22
2023-05-12T23:59:18.008Z,89.02
